Time;durP1;ratioP1;P1;durP2;ratioP2;P2;SDS_P1;SDS_P2;PMS_P1;PMS_P2;Temp;Humidity;BMP_temperature;BMP_pressure;BME280_temperature;BME280_humidity;BME280_pressure;Samples;Min_cycle;Max_cycle;Signal;HPM_P1;HPM_P2
2021/05/04 00:01:09;;;;;;;0.10;0.10;;;22.20;34.30;;;;;;5042924;28;20489;-47
2021/05/04 00:03:34;;;;;;;0.28;0.10;;;22.20;34.20;;;;;;5047681;28;20056;-47
2021/05/04 00:06:00;;;;;;;0.52;0.10;;;22.20;34.20;;;;;;5060010;28;20028;-43
2021/05/04 00:08:25;;;;;;;0.45;0.10;;;22.20;34.10;;;;;;5045927;28;20032;-46
2021/05/04 00:10:51;;;;;;;0.75;0.10;;;22.20;34.10;;;;;;5045798;28;20067;-45
2021/05/04 00:13:17;;;;;;;0.82;0.10;;;22.20;34.20;;;;;;5047102;28;20462;-48
2021/05/04 00:15:43;;;;;;;0.50;0.10;;;22.20;34.10;;;;;;5050586;28;20029;-44
2021/05/04 00:18:08;;;;;;;0.22;0.10;;;22.20;34.20;;;;;;5050025;28;20035;-43
2021/05/04 00:20:34;;;;;;;0.13;0.10;;;22.20;34.10;;;;;;5040366;28;20031;-47
2021/05/04 00:22:59;;;;;;;0.28;0.10;;;22.20;34.10;;;;;;5046893;28;20048;-47
2021/05/04 00:25:25;;;;;;;0.20;0.03;;;22.20;34.20;;;;;;5052885;28;20460;-45
2021/05/04 00:27:51;;;;;;;0.30;0.10;;;22.20;34.10;;;;;;5051227;28;20029;-48
2021/05/04 00:30:16;;;;;;;0.30;0.10;;;22.20;34.20;;;;;;5038898;28;20033;-49
2021/05/04 00:32:42;;;;;;;0.20;0.10;;;22.10;34.20;;;;;;5038214;28;20033;-49
2021/05/04 00:35:08;;;;;;;0.43;0.10;;;22.10;34.10;;;;;;5041588;28;20025;-47
2021/05/04 00:37:34;;;;;;;1.42;0.10;;;22.10;34.00;;;;;;5071307;28;20027;-44
2021/05/04 00:39:59;;;;;;;0.10;0.03;;;22.10;34.00;;;;;;5041980;28;20470;-46
2021/05/04 00:42:25;;;;;;;0.20;0.08;;;22.10;33.90;;;;;;5047126;28;20029;-45
2021/05/04 00:44:52;;;;;;;1.00;0.10;;;22.10;34.00;;;;;;5050761;28;20033;-47
2021/05/04 00:47:18;;;;;;;0.20;0.10;;;22.10;34.00;;;;;;5030879;28;20029;-47
2021/05/04 00:49:44;;;;;;;0.45;0.10;;;22.10;33.90;;;;;;5045551;28;20044;-46
2021/05/04 00:52:10;;;;;;;0.20;0.03;;;22.10;34.00;;;;;;5037200;28;20029;-48
2021/05/04 00:54:36;;;;;;;0.05;0.00;;;22.10;34.00;;;;;;5047619;28;20021;-47
2021/05/04 00:57:01;;;;;;;0.30;0.10;;;22.10;34.00;;;;;;5070273;28;20069;-43
2021/05/04 00:59:28;;;;;;;0.38;0.10;;;22.10;34.00;;;;;;5047731;28;20581;-45
2021/05/04 01:01:55;;;;;;;0.40;0.10;;;22.00;33.90;;;;;;5047538;28;20036;-48
2021/05/04 01:04:21;;;;;;;0.20;0.10;;;22.10;33.90;;;;;;5056567;28;20036;-45
2021/05/04 01:06:49;;;;;;;0.85;0.10;;;22.00;33.80;;;;;;5049610;28;20128;-46
2021/05/04 01:09:16;;;;;;;0.30;0.10;;;22.00;33.90;;;;;;5040769;28;20028;-44
2021/05/04 01:11:43;;;;;;;0.15;0.00;;;22.00;33.80;;;;;;5058891;28;20031;-46
2021/05/04 01:14:09;;;;;;;0.20;0.10;;;22.00;33.80;;;;;;5046344;28;20048;-45
2021/05/04 01:16:35;;;;;;;0.20;0.00;;;22.00;33.70;;;;;;5066655;28;20667;-47
2021/05/04 01:19:00;;;;;;;0.17;0.00;;;22.00;33.70;;;;;;5034918;28;20120;-49
2021/05/04 01:21:26;;;;;;;0.77;0.10;;;22.00;33.80;;;;;;5057271;28;20029;-46
2021/05/04 01:23:51;;;;;;;0.20;0.10;;;22.00;33.80;;;;;;5069013;28;20060;-48
2021/05/04 01:26:17;;;;;;;0.45;0.10;;;22.00;33.80;;;;;;5050765;28;20041;-46
2021/05/04 01:28:43;;;;;;;0.30;0.10;;;22.00;33.70;;;;;;5043735;28;20541;-47
2021/05/04 01:31:08;;;;;;;0.40;0.10;;;22.00;33.80;;;;;;5061376;28;20024;-47
2021/05/04 01:33:34;;;;;;;0.10;0.10;;;22.00;33.70;;;;;;5048203;28;20034;-45
2021/05/04 01:36:01;;;;;;;0.98;0.10;;;22.00;33.90;;;;;;5030756;28;20402;-46
2021/05/04 01:38:26;;;;;;;0.30;0.00;;;21.90;33.80;;;;;;5033618;28;20021;-48
2021/05/04 01:40:52;;;;;;;0.35;0.10;;;22.00;33.80;;;;;;5057500;28;20066;-48
2021/05/04 01:43:24;;;;;;;0.10;0.00;;;22.00;33.80;;;;;;5055774;28;20044;-47
2021/05/04 01:45:50;;;;;;;0.75;0.10;;;21.90;33.80;;;;;;5044549;28;20104;-47
2021/05/04 01:48:15;;;;;;;0.20;0.10;;;22.00;33.80;;;;;;5046689;28;20128;-49
2021/05/04 01:50:41;;;;;;;0.30;0.10;;;21.90;33.70;;;;;;5048417;28;20017;-47
2021/05/04 01:53:06;;;;;;;0.40;0.10;;;22.00;33.80;;;;;;5048521;28;20024;-49
2021/05/04 01:55:32;;;;;;;0.40;0.10;;;21.90;33.70;;;;;;5057805;28;20020;-45
2021/05/04 01:57:57;;;;;;;0.20;0.10;;;21.90;33.70;;;;;;5065624;28;20033;-48
2021/05/04 02:00:23;;;;;;;0.30;0.00;;;21.90;33.80;;;;;;5046569;28;20069;-44
2021/05/04 02:02:50;;;;;;;0.30;0.10;;;22.00;33.80;;;;;;5063500;28;20489;-49
2021/05/04 02:05:15;;;;;;;0.22;0.10;;;21.90;33.70;;;;;;5041056;28;20059;-45
2021/05/04 02:07:41;;;;;;;0.20;0.10;;;21.90;34.10;;;;;;5057073;28;20028;-48
2021/05/04 02:10:07;;;;;;;0.75;0.10;;;21.90;33.50;;;;;;5048543;28;20036;-49
2021/05/04 02:12:33;;;;;;;0.63;0.10;;;21.90;33.60;;;;;;5048447;28;20036;-51
2021/05/04 02:14:59;;;;;;;0.25;0.10;;;21.90;33.50;;;;;;5042926;28;20032;-49
2021/05/04 02:17:25;;;;;;;1.60;0.10;;;21.90;33.50;;;;;;5050804;28;20402;-49
2021/05/04 02:19:51;;;;;;;0.80;0.10;;;21.90;33.50;;;;;;5038093;28;20033;-46
2021/05/04 02:22:16;;;;;;;3.72;0.05;;;21.90;33.50;;;;;;5037342;28;20041;-47
2021/05/04 02:24:42;;;;;;;0.20;0.00;;;21.90;33.60;;;;;;5029018;28;20091;-47
2021/05/04 02:27:08;;;;;;;2.50;0.10;;;21.90;33.60;;;;;;5032741;28;20033;-48
2021/05/04 02:29:33;;;;;;;0.30;0.10;;;21.90;33.60;;;;;;5033835;28;20039;-45
2021/05/04 02:31:59;;;;;;;0.68;0.10;;;21.90;33.60;;;;;;5041060;28;20129;-46
2021/05/04 02:34:24;;;;;;;0.10;0.00;;;21.90;33.60;;;;;;5040865;28;20033;-48
2021/05/04 02:36:50;;;;;;;0.17;0.00;;;21.90;33.60;;;;;;5030583;28;20026;-48
2021/05/04 02:39:16;;;;;;;0.40;0.10;;;21.90;33.60;;;;;;5035114;28;20041;-46
2021/05/04 02:41:41;;;;;;;0.63;0.10;;;21.90;33.70;;;;;;5049158;28;20051;-45
2021/05/04 02:44:07;;;;;;;0.35;0.10;;;21.90;33.70;;;;;;5056899;28;20036;-45
2021/05/04 02:46:34;;;;;;;1.10;0.05;;;21.90;33.70;;;;;;5063026;28;20028;-48
2021/05/04 02:49:00;;;;;;;2.35;0.10;;;21.90;33.70;;;;;;5044429;28;20501;-48
2021/05/04 02:51:26;;;;;;;0.10;0.00;;;21.90;33.70;;;;;;5044849;28;20026;-46
2021/05/04 02:53:52;;;;;;;0.30;0.08;;;21.90;33.70;;;;;;5033215;28;20030;-47
2021/05/04 02:56:19;;;;;;;0.20;0.10;;;21.80;33.70;;;;;;5037948;28;20032;-47
2021/05/04 02:58:44;;;;;;;0.25;0.10;;;21.80;33.70;;;;;;5038204;28;20470;-47
2021/05/04 03:01:10;;;;;;;0.20;0.00;;;21.80;33.70;;;;;;5064727;28;20107;-49
2021/05/04 03:03:36;;;;;;;0.60;0.10;;;21.80;33.70;;;;;;5047517;28;20028;-50
2021/05/04 03:06:03;;;;;;;1.85;0.10;;;21.80;33.70;;;;;;5036542;28;20498;-49
2021/05/04 03:08:30;;;;;;;0.20;0.00;;;21.80;33.70;;;;;;5036649;28;20107;-49
2021/05/04 03:10:56;;;;;;;0.70;0.10;;;21.80;33.70;;;;;;5032711;28;20597;-47
2021/05/04 03:13:30;;;;;;;0.32;0.00;;;21.80;33.70;;;;;;5057431;28;20637;-47
2021/05/04 03:15:56;;;;;;;0.52;0.17;;;21.80;33.80;;;;;;5061818;28;20029;-51
2021/05/04 03:18:22;;;;;;;0.65;0.10;;;21.80;33.80;;;;;;5048050;28;20098;-45
2021/05/04 03:20:52;;;;;;;0.13;0.00;;;21.80;33.80;;;;;;5040481;28;20029;-49
2021/05/04 03:23:19;;;;;;;0.13;0.00;;;21.80;33.80;;;;;;5036664;28;20505;-47
2021/05/04 03:25:46;;;;;;;0.40;0.10;;;21.80;33.90;;;;;;5049786;28;20078;-47
2021/05/04 03:28:12;;;;;;;1.10;0.00;;;21.70;33.80;;;;;;5061182;28;20597;-50
2021/05/04 03:30:39;;;;;;;0.40;0.00;;;21.70;33.80;;;;;;5069667;28;20104;-47
2021/05/04 03:33:05;;;;;;;0.17;0.10;;;21.70;33.90;;;;;;5054094;28;20033;-47
2021/05/04 03:35:32;;;;;;;0.30;0.00;;;21.70;33.90;;;;;;5046261;28;20021;-48
2021/05/04 03:37:58;;;;;;;1.67;0.08;;;21.70;33.90;;;;;;5063832;28;20029;-47
2021/05/04 03:40:23;;;;;;;0.63;0.00;;;21.70;33.90;;;;;;5064181;28;20032;-47
2021/05/04 03:42:49;;;;;;;0.20;0.00;;;21.70;34.00;;;;;;5054748;28;20094;-49
2021/05/04 03:45:15;;;;;;;0.47;0.00;;;21.70;33.90;;;;;;5072492;28;20029;-48
2021/05/04 03:47:42;;;;;;;0.20;0.00;;;21.70;33.90;;;;;;5058693;28;20040;-45
2021/05/04 03:50:11;;;;;;;0.45;0.10;;;21.70;34.00;;;;;;5056306;28;20040;-46
2021/05/04 03:52:36;;;;;;;0.13;0.00;;;21.60;33.90;;;;;;5039282;28;20383;-48
2021/05/04 03:55:03;;;;;;;0.10;0.00;;;21.60;34.00;;;;;;5050585;28;20104;-48
2021/05/04 03:57:29;;;;;;;0.20;0.00;;;21.60;33.90;;;;;;5056412;28;20024;-46
2021/05/04 03:59:54;;;;;;;0.20;0.00;;;21.60;34.00;;;;;;5064472;28;20044;-46
2021/05/04 04:02:20;;;;;;;0.98;0.10;;;21.60;34.00;;;;;;5046333;28;20055;-46
2021/05/04 04:04:45;;;;;;;0.45;0.03;;;21.60;34.00;;;;;;5046647;28;20033;-48
2021/05/04 04:07:11;;;;;;;0.10;0.00;;;21.60;34.00;;;;;;5044528;28;20572;-46
2021/05/04 04:09:37;;;;;;;0.10;0.00;;;21.60;34.00;;;;;;5065269;28;20508;-49
2021/05/04 04:12:02;;;;;;;0.30;0.00;;;21.60;34.00;;;;;;5059943;28;20109;-48
2021/05/04 04:14:28;;;;;;;0.35;0.00;;;21.60;34.00;;;;;;5058389;28;20621;-46
2021/05/04 04:16:54;;;;;;;0.10;0.00;;;21.60;34.00;;;;;;5055955;28;20076;-46
2021/05/04 04:19:19;;;;;;;0.20;0.00;;;21.60;34.00;;;;;;5052420;28;20394;-46
2021/05/04 04:21:48;;;;;;;0.28;0.08;;;21.50;34.00;;;;;;5067940;28;20055;-48
2021/05/04 04:24:14;;;;;;;1.38;0.08;;;21.50;34.00;;;;;;5046306;28;20036;-46
2021/05/04 04:26:39;;;;;;;0.30;0.00;;;21.50;34.00;;;;;;5043634;28;20080;-48
2021/05/04 04:29:05;;;;;;;0.40;0.10;;;21.50;34.00;;;;;;5058525;28;20017;-48
2021/05/04 04:31:31;;;;;;;0.30;0.00;;;21.50;34.10;;;;;;5050130;28;20041;-46
2021/05/04 04:33:56;;;;;;;0.17;0.00;;;21.50;34.00;;;;;;5042710;28;20697;-46
2021/05/04 04:36:22;;;;;;;0.40;0.00;;;21.50;34.10;;;;;;5038565;28;20489;-48
2021/05/04 04:38:47;;;;;;;0.20;0.00;;;21.50;34.10;;;;;;5051188;28;20509;-47
2021/05/04 04:41:13;;;;;;;0.68;0.10;;;21.50;34.10;;;;;;5049625;28;20067;-47
2021/05/04 04:43:38;;;;;;;0.20;0.00;;;21.50;34.10;;;;;;5042438;28;20025;-47
2021/05/04 04:46:04;;;;;;;0.10;0.00;;;21.50;34.10;;;;;;5057838;28;20033;-48
2021/05/04 04:48:29;;;;;;;0.17;0.00;;;21.50;34.10;;;;;;5045087;28;20510;-47
2021/05/04 04:50:55;;;;;;;0.10;0.00;;;21.40;34.00;;;;;;5058207;28;20025;-46
2021/05/04 04:53:21;;;;;;;0.20;0.00;;;21.50;34.10;;;;;;5036462;28;20032;-47
2021/05/04 04:55:46;;;;;;;0.20;0.00;;;21.50;34.10;;;;;;5034153;28;20760;-48
2021/05/04 04:58:12;;;;;;;0.20;0.10;;;21.40;34.00;;;;;;5060381;28;20021;-46
2021/05/04 05:00:37;;;;;;;0.03;0.00;;;21.40;34.00;;;;;;5062013;28;20029;-48
2021/05/04 05:03:03;;;;;;;0.13;0.00;;;21.40;34.10;;;;;;5044558;28;20358;-45
2021/05/04 05:05:29;;;;;;;0.20;0.00;;;21.40;34.10;;;;;;5042737;28;20200;-46
2021/05/04 05:07:54;;;;;;;0.52;0.00;;;21.50;34.10;;;;;;5056132;28;20426;-44
2021/05/04 05:10:20;;;;;;;0.60;0.10;;;21.40;34.10;;;;;;5041266;28;20038;-48
2021/05/04 05:12:45;;;;;;;1.05;0.05;;;21.40;34.10;;;;;;5046940;28;20029;-48
2021/05/04 05:15:12;;;;;;;0.10;0.00;;;21.40;34.10;;;;;;5048290;28;20017;-47
2021/05/04 05:17:37;;;;;;;0.22;0.00;;;21.40;34.10;;;;;;5055589;28;20044;-47
2021/05/04 05:20:04;;;;;;;0.77;0.10;;;21.40;34.10;;;;;;5033480;28;20103;-48
2021/05/04 05:22:29;;;;;;;0.10;0.03;;;21.40;34.10;;;;;;5054733;28;20035;-48
2021/05/04 05:24:56;;;;;;;0.00;0.00;;;21.40;34.10;;;;;;5048558;28;20029;-46
2021/05/04 05:27:22;;;;;;;0.20;0.00;;;21.40;34.10;;;;;;5053028;28;20032;-47
2021/05/04 05:29:48;;;;;;;0.25;0.00;;;21.40;34.10;;;;;;5056655;28;20028;-49
2021/05/04 05:32:14;;;;;;;0.10;0.00;;;21.40;34.20;;;;;;5065500;28;20027;-47
2021/05/04 05:34:40;;;;;;;0.20;0.00;;;21.40;34.10;;;;;;5039060;28;20108;-50
2021/05/04 05:37:06;;;;;;;0.20;0.00;;;21.40;34.20;;;;;;5057788;28;20039;-50
2021/05/04 05:39:32;;;;;;;0.17;0.00;;;21.40;34.10;;;;;;5041521;28;20534;-47
2021/05/04 05:41:57;;;;;;;0.17;0.00;;;21.30;34.10;;;;;;5048428;28;20090;-47
2021/05/04 05:44:23;;;;;;;0.20;0.00;;;21.30;34.10;;;;;;5050717;28;20399;-46
2021/05/04 05:46:51;;;;;;;0.03;0.00;;;21.30;34.10;;;;;;5047196;28;20069;-49
2021/05/04 05:49:16;;;;;;;0.10;0.00;;;21.40;34.10;;;;;;5031112;28;20096;-47
2021/05/04 05:51:42;;;;;;;0.15;0.00;;;21.40;34.00;;;;;;5040673;28;20033;-46
2021/05/04 05:54:08;;;;;;;0.10;0.00;;;21.50;34.00;;;;;;5044524;28;20025;-43
2021/05/04 05:56:33;;;;;;;0.17;0.00;;;21.50;33.80;;;;;;5051661;28;20025;-48
2021/05/04 05:58:59;;;;;;;0.10;0.00;;;21.60;33.70;;;;;;5063798;28;20036;-48
2021/05/04 06:01:25;;;;;;;0.10;0.00;;;21.80;33.70;;;;;;5058611;28;20032;-49
2021/05/04 06:03:50;;;;;;;0.10;0.00;;;21.90;34.00;;;;;;5047374;28;20030;-46
2021/05/04 06:06:18;;;;;;;0.15;0.00;;;22.00;33.30;;;;;;5044642;28;20029;-46
2021/05/04 06:08:44;;;;;;;0.08;0.00;;;22.10;33.20;;;;;;5053751;28;20029;-49
2021/05/04 06:11:09;;;;;;;0.10;0.00;;;22.20;33.20;;;;;;5039656;28;20033;-45
2021/05/04 06:13:35;;;;;;;0.10;0.00;;;22.20;33.10;;;;;;5045834;28;20033;-48
2021/05/04 06:16:00;;;;;;;0.15;0.00;;;22.30;33.10;;;;;;5057256;28;20483;-46
2021/05/04 06:18:26;;;;;;;0.13;0.00;;;22.30;33.10;;;;;;5047983;28;21734;-44
2021/05/04 06:20:52;;;;;;;0.00;0.00;;;22.30;33.10;;;;;;5032730;28;20025;-46
2021/05/04 06:23:17;;;;;;;0.00;0.00;;;22.30;33.10;;;;;;5029860;28;20071;-45
2021/05/04 06:25:43;;;;;;;0.00;0.00;;;22.30;33.20;;;;;;5057883;28;20067;-50
2021/05/04 06:28:09;;;;;;;0.03;0.00;;;22.30;33.20;;;;;;5066514;28;20016;-46
2021/05/04 06:30:37;;;;;;;0.10;0.00;;;22.30;33.20;;;;;;5046042;28;20033;-46
2021/05/04 06:33:08;;;;;;;0.10;0.00;;;22.30;33.20;;;;;;5049514;28;20115;-48
2021/05/04 06:35:36;;;;;;;0.03;0.00;;;22.30;33.30;;;;;;5052070;28;20029;-47
2021/05/04 06:38:05;;;;;;;0.22;0.00;;;22.30;33.30;;;;;;5041919;28;20020;-50
2021/05/04 06:40:32;;;;;;;0.00;0.00;;;22.30;33.40;;;;;;5057065;28;20037;-47
2021/05/04 06:42:59;;;;;;;0.10;0.00;;;22.30;33.40;;;;;;5049557;28;20410;-45
2021/05/04 06:45:25;;;;;;;0.20;0.00;;;22.30;33.50;;;;;;5059318;28;20041;-49
2021/05/04 06:47:51;;;;;;;0.10;0.00;;;22.20;33.60;;;;;;5046305;28;20088;-48
2021/05/04 06:50:16;;;;;;;0.10;0.00;;;22.20;33.50;;;;;;5061920;28;20115;-45
2021/05/04 06:52:42;;;;;;;1.88;0.00;;;22.10;33.80;;;;;;5056650;28;20048;-46
2021/05/04 06:55:08;;;;;;;0.13;0.00;;;22.00;34.20;;;;;;5059740;28;20025;-50
2021/05/04 06:57:33;;;;;;;0.10;0.00;;;22.00;34.50;;;;;;5041101;28;20511;-47
2021/05/04 06:59:59;;;;;;;0.08;0.00;;;22.00;34.20;;;;;;5053281;28;20033;-49
2021/05/04 07:02:25;;;;;;;0.30;0.10;;;22.00;34.20;;;;;;5037772;28;20531;-47
2021/05/04 07:04:51;;;;;;;0.10;0.00;;;22.00;34.10;;;;;;5033160;28;20112;-45
2021/05/04 07:07:16;;;;;;;2.95;0.08;;;22.00;34.20;;;;;;5040555;28;20108;-48
2021/05/04 07:09:42;;;;;;;0.10;0.00;;;22.00;34.10;;;;;;5064097;28;20029;-48
2021/05/04 07:12:08;;;;;;;0.03;0.00;;;22.10;34.20;;;;;;5051686;28;20025;-46
2021/05/04 07:14:33;;;;;;;2.95;0.00;;;22.10;34.10;;;;;;5056121;28;20062;-49
2021/05/04 07:17:00;;;;;;;0.70;0.00;;;22.00;34.10;;;;;;5047034;28;20052;-47
2021/05/04 07:19:27;;;;;;;0.20;0.00;;;22.00;34.20;;;;;;5054759;28;20684;-48
2021/05/04 07:21:54;;;;;;;1.55;0.00;;;22.00;34.20;;;;;;5048552;28;20551;-50
2021/05/04 07:24:20;;;;;;;0.47;0.00;;;22.00;34.30;;;;;;5054889;28;20037;-47
2021/05/04 07:26:45;;;;;;;0.10;0.00;;;22.00;34.20;;;;;;5045353;28;20523;-47
2021/05/04 07:29:11;;;;;;;0.22;0.00;;;22.00;34.10;;;;;;5062205;28;20634;-50
2021/05/04 07:31:37;;;;;;;0.80;0.00;;;22.00;34.10;;;;;;5058967;28;20036;-49
2021/05/04 07:34:03;;;;;;;0.10;0.00;;;22.00;34.10;;;;;;5071536;28;20044;-49
2021/05/04 07:36:30;;;;;;;0.10;0.00;;;22.00;34.20;;;;;;5061784;28;20020;-47
2021/05/04 07:38:59;;;;;;;0.10;0.00;;;22.00;34.20;;;;;;5071774;28;20025;-48
2021/05/04 07:41:25;;;;;;;0.32;0.00;;;22.00;34.20;;;;;;5045691;28;20033;-47
2021/05/04 07:43:51;;;;;;;0.10;0.00;;;21.90;34.20;;;;;;5059315;28;20091;-48
2021/05/04 07:46:16;;;;;;;2.85;0.08;;;22.00;34.20;;;;;;5045795;28;20103;-47
2021/05/04 07:48:42;;;;;;;1.55;0.00;;;22.00;34.20;;;;;;5044001;28;20026;-45
2021/05/04 07:51:08;;;;;;;0.20;0.00;;;22.00;34.10;;;;;;5042581;28;20078;-48
2021/05/04 07:53:34;;;;;;;0.95;0.00;;;22.00;34.10;;;;;;5042196;28;20044;-48
2021/05/04 07:55:59;;;;;;;1.45;0.00;;;22.00;34.20;;;;;;5050241;28;20501;-47
2021/05/04 07:58:25;;;;;;;0.75;0.00;;;22.10;34.40;;;;;;5062878;28;20017;-47
2021/05/04 08:00:51;;;;;;;0.80;0.00;;;22.00;34.40;;;;;;5051871;28;20034;-48
2021/05/04 08:03:16;;;;;;;0.10;0.00;;;22.00;34.40;;;;;;5055659;28;20031;-49
2021/05/04 08:05:42;;;;;;;0.30;0.00;;;22.00;34.40;;;;;;5043820;28;20051;-47
2021/05/04 08:08:10;;;;;;;0.43;0.00;;;22.00;34.40;;;;;;5038220;28;20506;-50
2021/05/04 08:10:35;;;;;;;0.10;0.00;;;22.00;34.40;;;;;;5055493;28;20387;-48
2021/05/04 08:13:04;;;;;;;0.20;0.00;;;21.90;34.30;;;;;;5049621;28;20047;-46
2021/05/04 08:15:31;;;;;;;0.70;0.00;;;22.00;34.90;;;;;;5047627;28;20072;-48
2021/05/04 08:18:00;;;;;;;0.28;0.00;;;22.00;34.30;;;;;;5041310;28;20051;-46
2021/05/04 08:20:31;;;;;;;0.08;0.00;;;21.90;34.30;;;;;;5043970;28;20104;-48
2021/05/04 08:22:56;;;;;;;0.30;0.00;;;22.00;34.30;;;;;;5049360;28;20136;-48
2021/05/04 08:25:23;;;;;;;1.08;0.10;;;21.90;34.30;;;;;;5044414;28;20131;-48
2021/05/04 08:27:49;;;;;;;0.20;0.00;;;22.00;34.40;;;;;;5048377;28;20051;-51
2021/05/04 08:30:15;;;;;;;2.08;0.00;;;21.90;34.40;;;;;;5043850;28;20032;-51
2021/05/04 08:32:41;;;;;;;0.00;0.00;;;21.90;34.40;;;;;;5048406;28;20025;-50
2021/05/04 08:35:07;;;;;;;0.10;0.00;;;21.90;34.50;;;;;;5044970;28;20025;-50
2021/05/04 08:37:32;;;;;;;0.45;0.00;;;22.00;34.80;;;;;;5039699;28;20038;-49
2021/05/04 08:39:58;;;;;;;0.30;0.00;;;22.00;34.70;;;;;;5057465;28;20095;-51
2021/05/04 08:42:23;;;;;;;0.10;0.00;;;22.10;34.90;;;;;;5057854;28;20163;-49
2021/05/04 08:44:53;;;;;;;0.10;0.00;;;22.00;35.00;;;;;;5056825;28;20545;-47
2021/05/04 08:47:20;;;;;;;0.52;0.00;;;22.10;35.00;;;;;;5052361;28;20082;-51
2021/05/04 08:49:46;;;;;;;0.40;0.00;;;22.10;35.00;;;;;;5061176;28;20033;-53
2021/05/04 08:52:12;;;;;;;3.83;0.10;;;22.10;35.00;;;;;;5050046;28;20033;-53
2021/05/04 08:54:38;;;;;;;0.30;0.00;;;22.00;35.00;;;;;;5053641;28;20067;-52
2021/05/04 08:57:03;;;;;;;0.77;0.05;;;22.00;35.10;;;;;;5048525;28;20033;-47
2021/05/04 08:59:29;;;;;;;0.57;0.00;;;22.00;35.10;;;;;;5038543;28;20022;-46
2021/05/04 09:01:55;;;;;;;0.30;0.10;;;22.10;35.20;;;;;;5037919;28;20498;-46
2021/05/04 09:04:41;;;;;;;6.68;0.10;;;22.10;35.20;;;;;;5050603;28;20428;-50
2021/05/04 09:07:18;;;;;;;1.20;0.00;;;22.10;35.50;;;;;;5050098;28;20033;-53
2021/05/04 09:16:05;;;;;;;0.30;0.00;;;22.10;35.30;;;;;;5042064;28;20025;-51
2021/05/04 09:18:52;;;;;;;0.90;0.10;;;22.10;35.40;;;;;;5040479;28;20028;-48
2021/05/04 09:21:40;;;;;;;1.38;0.20;;;22.20;35.50;;;;;;5045603;28;20029;-51
2021/05/04 09:24:21;;;;;;;1.75;0.25;;;22.10;35.70;;;;;;5037186;28;20021;-52
2021/05/04 09:26:48;;;;;;;0.82;0.00;;;22.10;35.60;;;;;;5052593;28;20056;-51
2021/05/04 09:29:13;;;;;;;1.17;0.10;;;22.20;35.60;;;;;;5055332;28;20025;-51
2021/05/04 09:31:41;;;;;;;0.30;0.10;;;22.20;35.60;;;;;;5058000;28;20047;-50
2021/05/04 09:34:09;;;;;;;0.17;0.00;;;22.20;35.50;;;;;;5041689;28;20052;-51
2021/05/04 09:36:46;;;;;;;2.00;0.00;;;22.30;36.10;;;;;;5054296;28;20029;-50
2021/05/04 09:39:30;;;;;;;1.42;0.00;;;22.30;35.60;;;;;;5046769;28;20029;-51
2021/05/04 09:41:57;;;;;;;5.82;0.10;;;22.30;35.70;;;;;;5054914;28;20025;-51
2021/05/04 09:44:41;;;;;;;0.50;0.00;;;22.30;35.80;;;;;;5046903;28;20045;-53
2021/05/04 09:47:08;;;;;;;1.42;0.10;;;22.30;35.90;;;;;;5049143;28;20029;-52
2021/05/04 09:49:38;;;;;;;1.38;0.10;;;22.30;36.00;;;;;;5064018;28;20025;-50
2021/05/04 09:52:46;;;;;;;0.30;0.00;;;22.30;35.90;;;;;;5049501;28;20025;-54
2021/05/04 09:55:14;;;;;;;0.32;0.00;;;22.30;35.90;;;;;;5044476;28;20052;-49
2021/05/04 09:57:49;;;;;;;2.33;0.00;;;22.30;35.90;;;;;;5048410;28;20443;-49
2021/05/04 10:00:20;;;;;;;0.50;0.10;;;22.40;35.90;;;;;;5046194;28;20059;-49
2021/05/04 10:02:48;;;;;;;1.70;0.10;;;22.40;35.80;;;;;;5057325;28;20025;-45
2021/05/04 10:05:17;;;;;;;1.70;0.00;;;22.40;35.90;;;;;;5044585;28;20299;-45
2021/05/04 10:07:44;;;;;;;0.35;0.00;;;22.40;36.10;;;;;;5049660;28;20036;-45
2021/05/04 10:10:12;;;;;;;0.20;0.10;;;22.40;36.00;;;;;;5040181;28;20040;-49
2021/05/04 10:12:40;;;;;;;1.02;0.00;;;22.40;36.10;;;;;;5046528;28;20107;-48
2021/05/04 10:15:07;;;;;;;0.40;0.00;;;22.40;36.10;;;;;;5053238;28;20025;-47
2021/05/04 10:17:35;;;;;;;0.30;0.10;;;22.40;36.10;;;;;;5054768;28;20393;-51
2021/05/04 10:20:07;;;;;;;0.60;0.10;;;22.40;36.10;;;;;;5058508;28;20086;-50
2021/05/04 10:22:37;;;;;;;1.27;0.10;;;22.40;36.10;;;;;;5046352;28;20063;-53
2021/05/04 10:25:05;;;;;;;0.75;0.15;;;22.40;36.00;;;;;;5048985;28;20029;-55
2021/05/04 10:27:33;;;;;;;0.20;0.00;;;22.50;35.90;;;;;;5041188;28;20041;-51
2021/05/04 10:30:01;;;;;;;3.10;0.25;;;22.50;35.90;;;;;;5037304;28;20123;-50
2021/05/04 10:32:54;;;;;;;0.70;0.00;;;22.50;35.90;;;;;;5043831;28;20025;-55
2021/05/04 10:35:29;;;;;;;0.52;0.10;;;22.50;36.00;;;;;;5048549;28;20024;-54
2021/05/04 10:37:57;;;;;;;1.15;0.10;;;22.40;36.00;;;;;;5038049;28;20036;-52
2021/05/04 10:40:29;;;;;;;1.00;0.13;;;22.50;36.10;;;;;;5048568;28;20513;-47
2021/05/04 10:42:55;;;;;;;1.27;0.10;;;22.50;36.10;;;;;;5050359;28;20028;-49
2021/05/04 10:45:36;;;;;;;0.88;0.20;;;22.50;36.00;;;;;;5045932;28;20036;-55
2021/05/04 10:48:02;;;;;;;1.33;0.08;;;22.50;36.10;;;;;;5038368;28;20402;-49
2021/05/04 10:50:57;;;;;;;0.60;0.20;;;22.50;36.00;;;;;;5056134;28;20033;-48
2021/05/04 10:53:25;;;;;;;0.77;0.10;;;22.50;36.20;;;;;;5039081;28;20077;-50
2021/05/04 10:55:53;;;;;;;0.88;0.13;;;22.50;36.20;;;;;;5042262;28;20024;-46
2021/05/04 10:58:31;;;;;;;0.43;0.08;;;22.40;36.20;;;;;;5032798;28;20049;-50
2021/05/04 11:01:02;;;;;;;1.17;0.10;;;22.40;36.10;;;;;;5042482;28;20038;-53
2021/05/04 11:06:11;;;;;;;0.40;0.10;;;22.50;36.30;;;;;;5043919;28;20520;-46
2021/05/04 11:08:47;;;;;;;2.35;0.10;;;22.50;36.20;;;;;;5046348;28;20032;-47
2021/05/04 11:11:35;;;;;;;0.75;0.08;;;22.60;36.20;;;;;;5048858;28;20107;-51
2021/05/04 11:14:03;;;;;;;1.27;0.13;;;22.60;36.10;;;;;;5040540;28;20029;-51
2021/05/04 11:16:36;;;;;;;1.92;0.08;;;22.60;36.10;;;;;;5056547;28;20036;-49
2021/05/04 11:19:10;;;;;;;1.20;0.10;;;22.60;36.10;;;;;;5042932;28;20071;-53
2021/05/04 11:21:37;;;;;;;1.58;0.10;;;22.60;36.20;;;;;;5032400;28;20510;-49
2021/05/04 11:24:08;;;;;;;0.85;0.15;;;22.60;36.20;;;;;;5040035;28;20641;-51
2021/05/04 11:26:44;;;;;;;0.40;0.00;;;22.60;36.20;;;;;;5049751;28;20525;-56
2021/05/04 11:29:10;;;;;;;1.42;0.10;;;22.50;36.30;;;;;;5038910;28;20041;-50
2021/05/04 11:31:47;;;;;;;0.90;0.10;;;22.50;36.30;;;;;;5043721;28;20443;-55
2021/05/04 11:34:37;;;;;;;0.47;0.05;;;22.50;36.30;;;;;;5043881;28;20371;-53
2021/05/04 11:37:04;;;;;;;4.32;0.30;;;22.50;36.30;;;;;;5047739;28;20670;-53
2021/05/04 11:39:30;;;;;;;1.02;0.03;;;22.50;36.30;;;;;;5049066;28;20024;-49
2021/05/04 11:41:57;;;;;;;1.23;0.15;;;22.50;36.30;;;;;;5045435;28;20106;-49
2021/05/04 11:44:34;;;;;;;0.95;0.10;;;22.50;36.20;;;;;;5053424;28;20548;-51
2021/05/04 11:47:21;;;;;;;0.85;0.20;;;22.50;36.20;;;;;;5042131;28;20101;-50
2021/05/04 11:49:47;;;;;;;0.70;0.20;;;22.50;36.20;;;;;;5049360;28;20115;-48
2021/05/04 11:52:16;;;;;;;4.20;0.10;;;22.40;36.10;;;;;;5055272;28;20063;-43
2021/05/04 11:54:46;;;;;;;2.47;0.20;;;22.40;36.00;;;;;;5048030;28;20104;-46
2021/05/04 11:57:12;;;;;;;1.98;0.28;;;22.50;36.30;;;;;;5051382;28;20043;-50
2021/05/04 11:59:38;;;;;;;1.75;0.10;;;22.50;36.20;;;;;;5049542;28;20045;-49
2021/05/04 12:02:04;;;;;;;0.50;0.10;;;22.50;36.40;;;;;;5036841;28;20040;-45
2021/05/04 12:04:50;;;;;;;1.45;0.10;;;22.50;36.40;;;;;;5043825;28;20386;-49
2021/05/04 12:07:35;;;;;;;2.65;0.10;;;22.50;36.50;;;;;;5038398;28;20139;-47
2021/05/04 12:10:03;;;;;;;2.17;0.22;;;22.50;36.50;;;;;;5046730;28;20116;-52
2021/05/04 12:12:45;;;;;;;0.85;0.10;;;22.50;36.50;;;;;;5048311;28;20055;-49
2021/05/04 12:15:13;;;;;;;1.27;0.10;;;22.50;36.60;;;;;;5047727;28;20043;-48
2021/05/04 12:17:40;;;;;;;2.42;0.20;;;22.50;36.60;;;;;;5037307;28;20493;-45
2021/05/04 12:20:17;;;;;;;0.45;0.05;;;22.50;36.50;;;;;;5041754;28;20025;-45
2021/05/04 12:22:43;;;;;;;1.00;0.10;;;22.50;36.40;;;;;;5036715;28;20037;-49
2021/05/04 12:25:10;;;;;;;1.23;0.10;;;22.50;36.50;;;;;;5043816;28;20037;-49
2021/05/04 12:27:36;;;;;;;2.10;0.10;;;22.50;36.50;;;;;;5046837;28;20107;-54
2021/05/04 12:30:02;;;;;;;0.90;0.10;;;22.60;36.40;;;;;;5035896;28;20105;-49
2021/05/04 12:32:28;;;;;;;0.25;0.00;;;22.50;36.40;;;;;;5044131;28;20040;-51
2021/05/04 12:35:27;;;;;;;1.45;0.30;;;22.50;36.30;;;;;;5043781;28;20032;-47
2021/05/04 12:38:18;;;;;;;1.02;0.10;;;22.50;36.30;;;;;;5051415;28;20461;-49
2021/05/04 12:40:55;;;;;;;2.38;0.22;;;22.50;36.30;;;;;;5054984;28;20378;-46
2021/05/04 12:43:28;;;;;;;0.70;0.10;;;22.50;36.30;;;;;;5047925;28;20110;-49
2021/05/04 12:46:14;;;;;;;1.35;0.10;;;22.50;36.30;;;;;;5060891;28;20032;-50
2021/05/04 12:48:41;;;;;;;0.28;0.05;;;22.50;36.40;;;;;;5047511;28;20025;-48
2021/05/04 12:51:23;;;;;;;0.40;0.10;;;22.50;36.50;;;;;;5045145;28;20518;-52
2021/05/04 12:53:50;;;;;;;0.65;0.10;;;22.60;36.50;;;;;;5057192;28;20032;-47
2021/05/04 12:56:20;;;;;;;0.57;0.13;;;22.60;37.00;;;;;;5055495;28;20017;-50
2021/05/04 12:59:06;;;;;;;0.55;0.10;;;22.60;36.40;;;;;;5052552;28;20379;-48
2021/05/04 13:01:34;;;;;;;0.50;0.10;;;22.60;36.40;;;;;;5041946;28;20090;-46